Time;durP1;ratioP1;P1;durP2;ratioP2;P2;SDS_P1;SDS_P2;PMS_P1;PMS_P2;Temp;Humidity;BMP_temperature;BMP_pressure;BME280_temperature;BME280_humidity;BME280_pressure;Samples;Min_cycle;Max_cycle;Signal;HPM_P1;HPM_P2
2022/07/15 00:01:54;;;;;;;27.13;4.53;;;;;;;17.39;100.00;98187.38;5057150;28;20185;-57
2022/07/15 00:04:20;;;;;;;29.45;4.65;;;;;;;17.78;100.00;98187.47;5057841;28;20025;-57
2022/07/15 00:06:45;;;;;;;33.78;5.13;;;;;;;17.54;100.00;98190.78;5057540;28;20043;-57
2022/07/15 00:09:11;;;;;;;24.77;4.20;;;;;;;17.51;100.00;98196.25;5056864;28;20032;-57
2022/07/15 00:11:36;;;;;;;30.63;4.72;;;;;;;17.61;100.00;98192.06;5056668;28;20033;-59
2022/07/15 00:14:02;;;;;;;22.73;4.20;;;;;;;17.66;100.00;98189.97;5058487;28;20035;-57
2022/07/15 00:16:27;;;;;;;31.63;5.15;;;;;;;17.65;100.00;98203.25;5057850;28;20033;-58
2022/07/15 00:18:52;;;;;;;33.95;4.70;;;;;;;17.90;100.00;98191.91;5057773;28;20035;-57
2022/07/15 00:21:18;;;;;;;32.05;5.03;;;;;;;17.19;100.00;98191.31;5057236;28;20040;-57
2022/07/15 00:23:43;;;;;;;26.55;4.30;;;;;;;17.04;100.00;98195.78;5059468;28;20035;-57
2022/07/15 00:26:09;;;;;;;34.90;5.20;;;;;;;16.52;100.00;98202.53;5060390;28;20044;-57
2022/07/15 00:28:34;;;;;;;30.02;5.05;;;;;;;16.36;100.00;98217.59;5061106;28;20025;-57
2022/07/15 00:30:59;;;;;;;32.47;5.53;;;;;;;16.08;100.00;98221.00;5060096;28;20492;-58
2022/07/15 00:33:25;;;;;;;29.80;5.38;;;;;;;16.15;100.00;98227.59;5060934;28;20021;-57
2022/07/15 00:35:51;;;;;;;31.13;5.65;;;;;;;15.82;100.00;98239.19;5060504;28;20086;-57
2022/07/15 00:38:17;;;;;;;40.70;6.30;;;;;;;16.03;100.00;98233.59;5066394;28;20791;-57
2022/07/15 00:40:45;;;;;;;33.55;5.75;;;;;;;15.76;100.00;98234.31;5059492;28;20036;-58
2022/07/15 00:43:11;;;;;;;35.95;5.93;;;;;;;15.85;100.00;98243.44;5059164;28;20028;-57
2022/07/15 00:45:36;;;;;;;30.70;5.35;;;;;;;15.83;100.00;98234.81;5059754;28;20036;-58
2022/07/15 00:48:02;;;;;;;35.90;6.00;;;;;;;15.58;100.00;98241.44;5058714;28;20020;-57
2022/07/15 00:50:30;;;;;;;30.15;5.60;;;;;;;15.74;100.00;98241.44;5060073;28;20045;-58
2022/07/15 00:53:07;;;;;;;34.00;5.95;;;;;;;15.86;100.00;98239.84;5061139;28;20021;-57
2022/07/15 00:55:39;;;;;;;38.95;6.00;;;;;;;15.76;100.00;98248.28;5060569;28;20033;-58
2022/07/15 00:58:06;;;;;;;33.50;6.05;;;;;;;15.71;100.00;98257.34;5060801;28;20162;-57
2022/07/15 01:00:33;;;;;;;45.03;6.90;;;;;;;15.94;100.00;98243.75;5059643;28;20032;-57
2022/07/15 01:02:59;;;;;;;32.38;5.53;;;;;;;15.75;100.00;98253.63;5061609;28;20028;-58
2022/07/15 01:05:26;;;;;;;42.67;7.22;;;;;;;15.66;100.00;98251.50;5060881;28;20561;-58
2022/07/15 01:07:52;;;;;;;34.08;6.03;;;;;;;15.33;100.00;98247.22;5060625;28;20024;-58
2022/07/15 01:10:23;;;;;;;31.35;6.05;;;;;;;15.45;100.00;98256.22;5059667;28;20031;-60
2022/07/15 01:12:50;;;;;;;30.25;5.72;;;;;;;15.45;100.00;98257.06;5060326;28;20040;-57
2022/07/15 01:15:17;;;;;;;31.50;5.53;;;;;;;15.44;100.00;98263.25;5059798;28;20098;-58
2022/07/15 01:17:44;;;;;;;36.63;6.28;;;;;;;15.25;100.00;98263.44;5060343;28;20058;-58
2022/07/15 01:20:10;;;;;;;43.00;6.82;;;;;;;15.30;100.00;98257.94;5059795;28;20107;-57
2022/07/15 01:22:36;;;;;;;32.30;5.57;;;;;;;15.68;100.00;98265.41;5060122;28;20773;-57
2022/07/15 01:25:02;;;;;;;32.28;6.10;;;;;;;15.27;100.00;98266.81;5060533;28;20085;-58
2022/07/15 01:27:27;;;;;;;40.15;6.75;;;;;;;15.30;100.00;98271.06;5059093;28;20036;-58
2022/07/15 01:29:53;;;;;;;29.80;5.90;;;;;;;15.14;100.00;98273.69;5059943;28;20071;-58
2022/07/15 01:32:19;;;;;;;30.05;5.70;;;;;;;15.37;100.00;98277.69;5059843;28;20747;-58
2022/07/15 01:34:48;;;;;;;31.73;6.10;;;;;;;15.03;100.00;98279.53;5059024;28;20033;-57
2022/07/15 01:37:14;;;;;;;37.75;6.63;;;;;;;15.08;100.00;98280.13;5059283;28;20073;-58
2022/07/15 01:39:39;;;;;;;33.30;6.10;;;;;;;14.82;100.00;98292.91;5060583;28;20386;-57
2022/07/15 01:42:05;;;;;;;39.97;7.00;;;;;;;14.70;100.00;98288.28;5058292;28;20095;-59
2022/07/15 01:44:30;;;;;;;37.25;6.18;;;;;;;15.01;100.00;98289.28;5060170;28;20496;-57
2022/07/15 01:46:55;;;;;;;39.75;6.35;;;;;;;14.77;100.00;98287.03;5059596;28;20707;-57
2022/07/15 01:49:26;;;;;;;30.20;5.55;;;;;;;14.95;100.00;98300.97;5059819;28;20832;-58
2022/07/15 01:51:56;;;;;;;30.27;5.72;;;;;;;14.76;100.00;98295.00;5058734;28;20086;-57
2022/07/15 01:54:23;;;;;;;31.17;5.82;;;;;;;14.65;100.00;98292.97;5059697;28;20059;-57
2022/07/15 01:56:50;;;;;;;40.65;6.68;;;;;;;14.68;100.00;98298.03;5059194;28;20032;-57
2022/07/15 01:59:16;;;;;;;36.75;6.50;;;;;;;14.46;100.00;98293.91;5056029;28;20961;-58
2022/07/15 02:01:43;;;;;;;29.92;6.10;;;;;;;14.53;100.00;98290.94;5056845;28;20063;-58
2022/07/15 02:04:09;;;;;;;40.97;6.95;;;;;;;14.44;100.00;98295.72;5057879;28;20062;-58
2022/07/15 02:06:34;;;;;;;30.33;5.80;;;;;;;14.21;100.00;98299.56;5057022;28;20064;-57
2022/07/15 02:09:00;;;;;;;38.65;6.40;;;;;;;14.40;100.00;98294.19;5059176;28;20104;-57
2022/07/15 02:11:25;;;;;;;33.95;6.10;;;;;;;14.37;100.00;98289.13;5057776;28;20671;-57
2022/07/15 02:13:53;;;;;;;36.13;6.55;;;;;;;14.30;100.00;98298.25;5059199;28;20055;-59
2022/07/15 02:16:19;;;;;;;33.88;6.28;;;;;;;14.16;100.00;98305.97;5058660;28;20036;-59
2022/07/15 02:18:44;;;;;;;35.15;6.00;;;;;;;14.10;100.00;98306.25;5058809;28;20028;-58
2022/07/15 02:21:10;;;;;;;38.05;6.53;;;;;;;14.36;100.00;98308.41;5057922;28;20032;-60
2022/07/15 02:23:35;;;;;;;32.83;6.00;;;;;;;14.19;100.00;98306.66;5059862;28;20092;-57
2022/07/15 02:26:01;;;;;;;36.20;6.38;;;;;;;14.23;100.00;98304.75;5058235;28;20033;-58
2022/07/15 02:28:26;;;;;;;41.10;7.15;;;;;;;13.74;100.00;98304.56;5059358;28;20040;-57
2022/07/15 02:30:52;;;;;;;32.70;6.03;;;;;;;13.46;100.00;98300.66;5058216;28;21216;-57
2022/07/15 02:33:17;;;;;;;34.28;6.60;;;;;;;13.72;100.00;98311.66;5058801;28;20123;-57
2022/07/15 02:35:43;;;;;;;35.58;6.30;;;;;;;13.22;100.00;98308.72;5058530;28;20093;-57
2022/07/15 02:38:08;;;;;;;36.30;6.55;;;;;;;13.38;100.00;98308.88;5058400;28;20476;-58
2022/07/15 02:40:34;;;;;;;44.22;7.10;;;;;;;13.67;100.00;98304.00;5058081;28;20036;-57
2022/07/15 02:43:01;;;;;;;36.58;6.00;;;;;;;13.60;100.00;98299.97;5058898;28;21005;-58
2022/07/15 02:45:29;;;;;;;38.78;6.60;;;;;;;13.63;100.00;98311.16;5058098;28;20040;-57
2022/07/15 02:47:55;;;;;;;26.35;5.43;;;;;;;13.68;100.00;98306.56;5057926;28;20123;-57
2022/07/15 02:50:21;;;;;;;33.08;6.03;;;;;;;13.53;100.00;98315.16;5056885;28;20025;-58
2022/07/15 02:52:47;;;;;;;36.13;6.88;;;;;;;13.79;100.00;98310.44;5058214;28;20028;-57
2022/07/15 02:55:13;;;;;;;39.72;7.03;;;;;;;13.94;100.00;98311.44;5058604;28;20078;-58
2022/07/15 02:57:39;;;;;;;31.10;6.20;;;;;;;13.97;100.00;98316.53;5058461;28;20867;-57
2022/07/15 03:00:08;;;;;;;50.08;7.82;;;;;;;13.94;100.00;98317.53;5057774;28;20549;-57
2022/07/15 03:02:34;;;;;;;28.17;6.13;;;;;;;14.06;100.00;98311.69;5058310;28;20738;-58
2022/07/15 03:05:00;;;;;;;29.13;6.20;;;;;;;13.75;100.00;98319.34;5058252;28;20021;-57
2022/07/15 03:07:27;;;;;;;30.00;6.10;;;;;;;13.55;100.00;98321.19;5057725;28;20718;-57
2022/07/15 03:09:53;;;;;;;40.22;7.20;;;;;;;13.56;100.00;98320.25;5058351;28;20123;-57
2022/07/15 03:12:18;;;;;;;31.95;6.60;;;;;;;13.57;100.00;98328.97;5057896;28;20090;-57
2022/07/15 03:14:43;;;;;;;35.35;6.68;;;;;;;13.54;100.00;98336.97;5058474;28;20055;-57
2022/07/15 03:17:09;;;;;;;42.75;7.15;;;;;;;13.56;100.00;98341.22;5057463;28;20075;-56
2022/07/15 03:19:34;;;;;;;34.65;6.65;;;;;;;13.35;100.00;98345.69;5058631;28;20032;-57
2022/07/15 03:22:00;;;;;;;39.78;7.05;;;;;;;12.91;100.00;98354.63;5057577;28;20040;-58
2022/07/15 03:24:25;;;;;;;26.58;5.70;;;;;;;13.22;100.00;98352.41;5057442;28;20438;-57
2022/07/15 03:26:51;;;;;;;33.90;6.38;;;;;;;13.52;100.00;98344.91;5055732;28;20036;-57
2022/07/15 03:29:16;;;;;;;34.03;6.32;;;;;;;13.44;100.00;98345.28;5057626;28;20544;-59
2022/07/15 03:31:45;;;;;;;42.55;6.60;;;;;;;13.26;100.00;98349.56;5058399;28;20051;-57
2022/07/15 03:34:11;;;;;;;32.47;6.22;;;;;;;13.57;100.00;98344.69;5058451;28;20907;-57
2022/07/15 03:36:40;;;;;;;34.88;5.93;;;;;;;13.38;100.00;98352.56;5057660;28;20591;-57
2022/07/15 03:39:06;;;;;;;41.03;7.13;;;;;;;13.33;100.00;98358.03;5057840;28;20029;-57
2022/07/15 03:41:32;;;;;;;33.67;6.50;;;;;;;13.21;100.00;98358.56;5056962;28;20048;-57
2022/07/15 03:43:58;;;;;;;36.55;6.68;;;;;;;13.21;100.00;98363.78;5059283;28;20135;-57
2022/07/15 03:46:24;;;;;;;33.33;6.35;;;;;;;13.32;100.00;98351.06;5057538;28;20032;-58
2022/07/15 03:48:50;;;;;;;34.90;6.55;;;;;;;13.40;100.00;98358.56;5058584;28;20024;-57
2022/07/15 03:51:15;;;;;;;37.53;6.25;;;;;;;13.41;100.00;98365.53;5057207;28;20044;-58
2022/07/15 03:53:41;;;;;;;35.42;6.63;;;;;;;13.44;100.00;98366.22;5057977;28;20037;-58
2022/07/15 03:56:07;;;;;;;31.90;6.05;;;;;;;13.41;100.00;98362.91;5057856;28;20025;-57
2022/07/15 03:58:32;;;;;;;35.45;6.45;;;;;;;13.37;100.00;98370.06;5058796;28;20083;-57
2022/07/15 04:00:58;;;;;;;29.67;5.65;;;;;;;13.49;100.00;98371.25;5060420;28;20071;-58
2022/07/15 04:03:23;;;;;;;41.63;6.78;;;;;;;13.51;100.00;98379.91;5061732;28;20031;-57
2022/07/15 04:05:48;;;;;;;32.53;5.88;;;;;;;13.55;100.00;98373.59;5061426;28;20040;-57
2022/07/15 04:08:14;;;;;;;30.95;5.53;;;;;;;13.56;100.00;98380.53;5061072;28;20395;-57
2022/07/15 04:10:39;;;;;;;35.90;6.22;;;;;;;13.46;100.00;98377.50;5060908;28;20094;-57
2022/07/15 04:13:04;;;;;;;34.20;5.97;;;;;;;13.92;100.00;98371.84;5061737;28;20026;-57
2022/07/15 04:15:30;;;;;;;32.47;5.97;;;;;;;13.80;100.00;98369.78;5061085;28;20037;-57
2022/07/15 04:17:58;;;;;;;34.30;6.22;;;;;;;13.92;100.00;98376.22;5060065;28;20031;-58
2022/07/15 04:20:24;;;;;;;38.65;6.28;;;;;;;14.40;100.00;98372.09;5059875;28;20040;-57
2022/07/15 04:22:50;;;;;;;40.25;6.75;;;;;;;14.25;100.00;98377.19;5060934;28;20035;-58
2022/07/15 04:25:18;;;;;;;39.83;6.78;;;;;;;14.52;100.00;98370.59;5060432;28;20024;-57
2022/07/15 04:27:43;;;;;;;45.92;7.57;;;;;;;14.54;100.00;98371.38;5060030;28;20137;-58
2022/07/15 04:30:09;;;;;;;57.55;7.97;;;;;;;14.70;100.00;98374.94;5060022;28;20123;-56
2022/07/15 04:32:35;;;;;;;42.78;7.20;;;;;;;14.90;100.00;98365.19;5061864;28;20031;-57
2022/07/15 04:35:01;;;;;;;49.05;6.88;;;;;;;14.71;100.00;98358.28;5060616;28;20024;-58
2022/07/15 04:37:27;;;;;;;45.38;7.25;;;;;;;14.97;100.00;98366.56;5059889;28;20124;-57
2022/07/15 04:39:53;;;;;;;53.35;7.70;;;;;;;15.01;100.00;98365.47;5060455;28;20036;-57
2022/07/15 04:42:18;;;;;;;40.22;6.70;;;;;;;15.25;100.00;98367.72;5060237;28;20040;-57
2022/07/15 04:44:44;;;;;;;40.55;6.63;;;;;;;15.46;100.00;98358.66;5060687;28;20033;-57
2022/07/15 04:47:09;;;;;;;46.28;7.40;;;;;;;15.77;100.00;98357.81;5049409;28;20036;-57
2022/07/15 04:52:18;;;;;;;36.38;6.35;;;;;;;15.76;100.00;98364.00;5059295;28;20113;-57
2022/07/15 04:54:44;;;;;;;37.58;6.75;;;;;;;15.58;100.00;98365.00;5060738;28;20107;-57
2022/07/15 04:57:11;;;;;;;42.40;7.03;;;;;;;15.77;100.00;98362.25;5059500;28;20070;-57
2022/07/15 04:59:37;;;;;;;46.38;6.80;;;;;;;15.85;100.00;98362.66;5060218;28;20048;-57
2022/07/15 05:02:02;;;;;;;41.67;6.95;;;;;;;16.53;100.00;98351.66;5058553;28;20151;-57
2022/07/15 05:04:28;;;;;;;42.38;6.72;;;;;;;18.35;100.00;98344.69;5059918;28;20024;-58
2022/07/15 05:06:54;;;;;;;35.13;6.40;;;;;;;17.94;100.00;98345.63;5059845;28;20040;-59
2022/07/15 05:09:19;;;;;;;38.42;6.22;;;;;;;19.73;100.00;98337.66;5057770;28;20024;-57
2022/07/15 05:11:45;;;;;;;32.20;5.43;;;;;;;21.02;100.00;98342.16;5057587;28;20071;-59
2022/07/15 05:14:10;;;;;;;39.55;6.15;;;;;;;21.85;100.00;98336.34;5057721;28;20138;-59
2022/07/15 05:16:36;;;;;;;36.22;5.95;;;;;;;21.07;100.00;98343.47;5056585;28;20658;-59
2022/07/15 05:19:01;;;;;;;38.67;5.82;;;;;;;23.54;100.00;98339.75;5056701;28;20027;-58
2022/07/15 05:21:26;;;;;;;24.75;4.80;;;;;;;21.76;100.00;98342.41;5057273;28;20119;-58
2022/07/15 05:23:52;;;;;;;28.38;4.75;;;;;;;21.18;100.00;98345.28;5058215;28;20032;-57
2022/07/15 05:26:18;;;;;;;29.83;5.05;;;;;;;20.11;100.00;98349.06;5059740;28;20098;-57
2022/07/15 05:28:44;;;;;;;23.45;4.57;;;;;;;20.35;100.00;98346.38;5060047;28;20113;-57
2022/07/15 05:31:09;;;;;;;23.70;4.47;;;;;;;19.12;100.00;98352.66;5058749;28;20135;-57
2022/07/15 05:33:35;;;;;;;28.48;4.88;;;;;;;19.72;100.00;98357.13;5060502;28;20027;-58
2022/07/15 05:36:00;;;;;;;24.27;4.60;;;;;;;21.17;100.00;98359.50;5060346;28;20466;-57
2022/07/15 05:38:26;;;;;;;30.48;5.07;;;;;;;20.76;100.00;98352.97;5058772;28;20048;-58
2022/07/15 05:40:53;;;;;;;28.92;4.82;;;;;;;23.32;100.00;98345.31;5058574;28;20101;-58
2022/07/15 05:43:19;;;;;;;21.70;4.18;;;;;;;22.39;98.03;98353.19;5059337;28;20021;-58
2022/07/15 05:45:44;;;;;;;20.45;4.25;;;;;;;22.84;90.73;98344.94;5059297;28;20115;-58
2022/07/15 05:48:10;;;;;;;25.38;4.95;;;;;;;27.04;70.96;98347.22;5059623;28;20099;-59
2022/07/15 05:50:35;;;;;;;22.98;4.70;;;;;;;25.11;68.89;98351.22;5058908;28;20562;-58
2022/07/15 05:53:00;;;;;;;21.67;3.97;;;;;;;26.38;64.77;98345.09;5060034;28;20031;-58
2022/07/15 05:55:26;;;;;;;18.65;4.25;;;;;;;27.80;54.40;98353.56;5060432;28;20085;-58
2022/07/15 05:57:52;;;;;;;20.98;4.07;;;;;;;28.24;51.85;98356.00;5059265;28;20107;-58
2022/07/15 06:00:17;;;;;;;25.20;4.40;;;;;;;30.06;47.75;98354.50;5059139;28;20028;-59
2022/07/15 06:02:43;;;;;;;21.65;3.95;;;;;;;29.68;45.70;98357.03;5058475;28;20021;-58
2022/07/15 06:05:09;;;;;;;16.83;3.63;;;;;;;30.40;44.32;98353.22;5059544;28;20548;-58
2022/07/15 06:07:35;;;;;;;18.35;3.75;;;;;;;32.19;39.73;98348.63;5057773;28;20161;-58
2022/07/15 06:10:01;;;;;;;27.63;5.32;;;;;;;30.17;42.25;98354.06;5056191;28;20035;-58
2022/07/15 06:12:26;;;;;;;19.75;4.07;;;;;;;30.86;43.55;98357.69;5056287;28;20041;-59
2022/07/15 06:14:51;;;;;;;19.38;4.18;;;;;;;31.68;39.32;98357.59;5059255;28;20040;-58
2022/07/15 06:17:17;;;;;;;17.30;3.83;;;;;;;31.64;38.69;98361.72;5058225;28;20040;-58
2022/07/15 06:19:42;;;;;;;16.88;3.90;;;;;;;28.02;43.12;98362.00;5058700;28;20079;-60
2022/07/15 06:22:08;;;;;;;14.63;3.22;;;;;;;30.35;38.43;98361.03;5057814;28;20041;-58
2022/07/15 06:24:33;;;;;;;14.05;3.35;;;;;;;30.87;38.37;98362.91;5059030;28;20048;-58
2022/07/15 06:26:58;;;;;;;15.13;3.72;;;;;;;32.17;37.83;98360.66;5058007;28;20048;-58
2022/07/15 06:29:24;;;;;;;11.65;3.17;;;;;;;32.16;37.64;98356.28;5057797;28;20603;-60
2022/07/15 06:31:49;;;;;;;13.43;3.60;;;;;;;30.63;40.60;98363.16;5057154;28;20785;-59
2022/07/15 06:34:15;;;;;;;12.68;3.38;;;;;;;32.21;38.17;98361.94;5057617;28;20043;-58
2022/07/15 06:36:41;;;;;;;16.88;3.60;;;;;;;33.02;36.83;98357.00;5057938;28;20445;-59
2022/07/15 06:39:07;;;;;;;14.82;3.75;;;;;;;31.57;37.64;98355.41;5063890;28;20248;-58
2022/07/15 06:41:33;;;;;;;12.02;3.00;;;;;;;32.36;37.66;98354.59;5057905;28;20567;-58
2022/07/15 06:43:59;;;;;;;12.13;3.13;;;;;;;33.20;33.62;98358.38;5058228;28;20055;-59
2022/07/15 06:46:25;;;;;;;14.10;3.58;;;;;;;31.94;34.79;98356.22;5058754;28;20033;-58
2022/07/15 06:48:50;;;;;;;10.70;3.03;;;;;;;30.96;35.60;98352.09;5058199;28;20571;-60
2022/07/15 06:51:16;;;;;;;14.90;3.70;;;;;;;30.55;37.37;98356.81;5057541;28;20127;-58
2022/07/15 06:53:41;;;;;;;15.52;3.20;;;;;;;32.67;34.58;98360.72;5059094;28;20035;-58
2022/07/15 06:56:07;;;;;;;17.90;3.90;;;;;;;29.26;37.36;98350.16;5057024;28;20139;-58
2022/07/15 06:58:32;;;;;;;15.07;3.55;;;;;;;32.81;34.38;98355.19;5057303;28;20024;-58
2022/07/15 07:00:59;;;;;;;13.73;3.30;;;;;;;32.39;33.55;98359.63;5057146;28;20037;-59
2022/07/15 07:03:25;;;;;;;14.13;3.33;;;;;;;30.94;35.25;98354.97;5058515;28;20045;-59
2022/07/15 07:05:50;;;;;;;16.15;3.45;;;;;;;31.95;33.89;98352.53;5057487;28;20509;-58
2022/07/15 07:08:16;;;;;;;13.23;3.28;;;;;;;31.55;35.18;98351.25;5057906;28;20190;-59
2022/07/15 07:10:41;;;;;;;16.42;3.30;;;;;;;30.09;37.37;98356.81;5058069;28;20123;-58
2022/07/15 07:13:06;;;;;;;15.60;3.58;;;;;;;31.38;35.33;98350.59;5058228;28;20035;-59
2022/07/15 07:15:32;;;;;;;16.73;3.40;;;;;;;32.29;34.79;98359.09;5057771;28;20067;-59
2022/07/15 07:17:57;;;;;;;13.90;3.17;;;;;;;33.07;33.10;98361.81;5057795;28;20032;-58
2022/07/15 07:20:23;;;;;;;16.20;3.53;;;;;;;32.20;34.57;98355.72;5056533;28;20047;-59
2022/07/15 07:22:48;;;;;;;10.20;3.05;;;;;;;34.08;31.50;98360.38;5057746;28;20036;-60
2022/07/15 07:25:14;;;;;;;16.40;3.58;;;;;;;34.07;32.11;98350.59;5057644;28;20031;-58
2022/07/15 07:27:39;;;;;;;14.68;3.50;;;;;;;32.33;33.24;98352.31;5056840;28;20024;-60
2022/07/15 07:30:05;;;;;;;18.50;4.35;;;;;;;33.15;31.85;98350.84;5056659;28;20055;-59
2022/07/15 07:32:31;;;;;;;14.65;3.28;;;;;;;33.52;31.48;98346.03;5058006;28;20055;-59
2022/07/15 07:34:57;;;;;;;14.15;3.20;;;;;;;34.65;30.85;98340.03;5061902;28;20043;-59
2022/07/15 07:37:22;;;;;;;13.55;3.22;;;;;;;33.89;31.38;98340.34;5060999;28;20040;-59
2022/07/15 07:39:49;;;;;;;11.07;3.25;;;;;;;31.64;34.03;98337.44;5062314;28;20472;-59
2022/07/15 07:42:16;;;;;;;11.43;3.15;;;;;;;31.99;33.68;98336.78;5061719;28;20036;-60
2022/07/15 07:44:42;;;;;;;17.23;3.25;;;;;;;33.25;31.08;98337.00;5062195;28;20452;-59
2022/07/15 07:47:08;;;;;;;18.35;3.47;;;;;;;33.93;29.91;98334.34;5061048;28;20043;-59
2022/07/15 07:49:33;;;;;;;10.45;2.85;;;;;;;32.92;32.27;98336.75;5061763;28;20028;-60
2022/07/15 07:51:59;;;;;;;15.93;3.30;;;;;;;33.71;30.92;98330.09;5060578;28;20070;-59
2022/07/15 07:54:24;;;;;;;12.55;2.60;;;;;;;35.08;28.55;98339.56;5062437;28;20024;-59
2022/07/15 07:56:49;;;;;;;15.20;3.13;;;;;;;32.91;31.14;98335.09;5060504;28;20025;-59
2022/07/15 07:59:15;;;;;;;10.48;2.72;;;;;;;31.63;31.34;98329.53;5061798;28;20040;-58
2022/07/15 08:01:40;;;;;;;13.57;3.08;;;;;;;30.46;33.67;98328.31;5060308;28;20036;-59
2022/07/15 08:04:06;;;;;;;15.27;3.17;;;;;;;29.98;34.35;98335.72;5061196;28;20032;-60
2022/07/15 08:06:34;;;;;;;14.93;3.40;;;;;;;30.63;32.86;98328.97;5060461;28;20032;-60
2022/07/15 08:09:00;;;;;;;12.98;3.20;;;;;;;33.08;30.33;98333.75;5060889;28;20049;-59
2022/07/15 08:11:25;;;;;;;14.15;3.35;;;;;;;33.49;29.35;98338.34;5059906;28;20341;-60
2022/07/15 08:13:51;;;;;;;11.70;2.60;;;;;;;32.52;29.91;98331.06;5061049;28;20115;-60
2022/07/15 08:16:17;;;;;;;18.75;3.90;;;;;;;32.14;31.07;98328.66;5060122;28;20041;-59
2022/07/15 08:18:43;;;;;;;15.50;3.17;;;;;;;32.14;32.18;98325.97;5060779;28;20030;-59
2022/07/15 08:21:08;;;;;;;14.38;3.20;;;;;;;33.15;30.34;98326.53;5059856;28;20062;-60
2022/07/15 08:23:34;;;;;;;13.52;2.90;;;;;;;34.95;26.80;98320.63;5061044;28;20536;-60
2022/07/15 08:25:59;;;;;;;15.30;3.20;;;;;;;33.34;28.95;98324.13;5060431;28;20036;-59
2022/07/15 08:28:25;;;;;;;12.18;3.00;;;;;;;32.62;30.46;98318.06;5059735;28;20334;-60
2022/07/15 08:30:50;;;;;;;12.60;3.25;;;;;;;28.40;34.61;98324.81;5059064;28;20067;-60
2022/07/15 08:33:16;;;;;;;16.52;3.63;;;;;;;30.14;32.30;98327.53;5060506;28;20029;-59
2022/07/15 08:35:42;;;;;;;18.25;3.95;;;;;;;29.13;35.88;98323.88;5061432;28;20075;-59
2022/07/15 08:38:08;;;;;;;14.10;3.15;;;;;;;27.73;36.63;98325.72;5059260;28;20119;-59
2022/07/15 08:40:34;;;;;;;18.65;4.05;;;;;;;27.37;36.93;98320.63;5058628;28;20185;-59
2022/07/15 08:43:00;;;;;;;17.00;3.42;;;;;;;27.22;38.39;98325.72;5060785;28;20093;-59
2022/07/15 08:45:26;;;;;;;14.73;3.33;;;;;;;26.93;35.92;98323.41;5060100;28;20028;-59
2022/07/15 08:47:52;;;;;;;15.38;3.60;;;;;;;26.30;36.69;98322.63;5059713;28;20036;-59
2022/07/15 08:50:18;;;;;;;20.30;4.10;;;;;;;28.19;35.75;98325.31;5058370;28;20106;-58
2022/07/15 08:52:46;;;;;;;21.60;3.97;;;;;;;30.15;32.42;98318.44;5059379;28;20888;-58
2022/07/15 08:55:13;;;;;;;17.17;3.67;;;;;;;31.02;34.14;98313.63;5060808;28;20032;-60
2022/07/15 08:57:39;;;;;;;18.30;3.83;;;;;;;28.98;36.27;98318.34;5059919;28;20478;-60
2022/07/15 09:00:09;;;;;;;20.52;4.32;;;;;;;27.45;35.79;98311.78;5059687;28;20028;-59
2022/07/15 09:02:37;;;;;;;14.60;3.45;;;;;;;27.09;37.79;98312.78;5060275;28;20024;-60
2022/07/15 09:05:18;;;;;;;15.30;3.20;;;;;;;26.61;40.40;98318.69;5060728;28;20051;-59
2022/07/15 09:07:54;;;;;;;17.40;3.63;;;;;;;25.92;42.20;98321.97;5047548;28;20048;-58
2022/07/15 09:10:21;;;;;;;18.70;3.95;;;;;;;26.48;41.87;98321.75;5059437;28;20024;-58
2022/07/15 09:12:51;;;;;;;16.27;3.45;;;;;;;25.45;42.19;98321.28;5059522;28;20036;-58
2022/07/15 09:15:34;;;;;;;19.02;3.45;;;;;;;26.94;39.26;98319.72;5059717;28;20039;-59
2022/07/15 09:18:08;;;;;;;21.65;4.10;;;;;;;27.59;38.43;98323.69;5059770;28;20087;-58
2022/07/15 09:20:35;;;;;;;21.33;4.15;;;;;;;26.03;40.40;98322.75;5059083;28;20033;-60
2022/07/15 09:23:01;;;;;;;23.10;4.05;;;;;;;27.60;38.61;98325.38;5059972;28;20089;-58
2022/07/15 09:25:28;;;;;;;23.23;4.47;;;;;;;26.21;40.51;98323.56;5058637;28;20050;-58
2022/07/15 09:27:54;;;;;;;21.60;4.13;;;;;;;25.01;41.89;98324.53;5058637;28;20056;-59
2022/07/15 09:33:47;;;;;;;20.05;3.90;;;;;;;25.95;39.54;98318.13;5059661;28;20117;-60
2022/07/15 09:36:20;;;;;;;21.40;4.20;;;;;;;28.92;38.36;98315.53;5058594;28;20182;-58
2022/07/15 09:38:46;;;;;;;25.38;4.38;;;;;;;29.90;36.07;98314.25;5058414;28;20417;-61
2022/07/15 09:41:27;;;;;;;19.33;4.28;;;;;;;30.80;34.75;98318.03;5057894;28;20051;-58
2022/07/15 09:44:21;;;;;;;15.65;3.55;;;;;;;32.07;31.13;98323.19;5058760;28;20033;-59
2022/07/15 09:46:59;;;;;;;18.23;4.18;;;;;;;31.31;31.11;98318.97;5057600;28;20044;-59
2022/07/15 09:49:24;;;;;;;16.95;3.55;;;;;;;28.06;36.10;98332.00;5059062;28;20078;-59
2022/07/15 09:51:50;;;;;;;15.03;3.50;;;;;;;29.33;35.84;98329.66;5058430;28;20045;-59
2022/07/15 09:54:16;;;;;;;15.85;3.78;;;;;;;29.30;33.72;98324.66;5059285;28;20691;-59
2022/07/15 09:56:43;;;;;;;14.43;3.50;;;;;;;31.07;32.30;98308.53;5057886;28;20040;-59
2022/07/15 09:59:09;;;;;;;18.08;3.63;;;;;;;32.61;30.48;98319.13;5059103;28;20085;-60
2022/07/15 10:01:38;;;;;;;17.63;3.83;;;;;;;32.05;31.08;98312.59;5057649;28;20044;-60
2022/07/15 10:04:04;;;;;;;16.20;3.80;;;;;;;30.41;31.59;98316.41;5058974;28;20429;-58
2022/07/15 10:06:32;;;;;;;17.15;3.90;;;;;;;29.12;35.03;98322.19;5057867;28;20066;-59
2022/07/15 10:08:58;;;;;;;11.02;2.92;;;;;;;27.63;36.01;98317.84;5058453;28;20020;-59
2022/07/15 10:11:24;;;;;;;18.10;4.22;;;;;;;28.67;34.88;98322.81;5057198;28;20045;-59
2022/07/15 10:14:26;;;;;;;18.85;4.32;;;;;;;28.69;35.66;98326.16;5058575;28;20063;-59
2022/07/15 10:17:03;;;;;;;17.00;4.57;;;;;;;29.91;31.78;98316.78;5058643;28;20407;-60
2022/07/15 10:19:48;;;;;;;18.30;4.13;;;;;;;28.16;33.80;98320.28;5057801;28;20583;-58
2022/07/15 10:22:40;;;;;;;17.92;3.78;;;;;;;29.03;36.09;98326.72;5059184;28;20040;-59
2022/07/15 10:25:15;;;;;;;17.77;3.38;;;;;;;30.41;33.44;98319.94;5058280;28;20622;-59
2022/07/15 10:27:55;;;;;;;16.95;3.80;;;;;;;30.58;32.58;98317.91;5058224;28;20052;-59
2022/07/15 10:30:24;;;;;;;19.83;4.38;;;;;;;29.19;34.21;98311.63;5056786;28;20048;-58
2022/07/15 10:33:07;;;;;;;16.27;3.85;;;;;;;29.52;34.20;98330.25;5057428;28;20055;-59
2022/07/15 10:35:34;;;;;;;16.25;3.72;;;;;;;28.12;35.47;98316.25;5057982;28;20032;-58
2022/07/15 10:38:24;;;;;;;17.80;3.92;;;;;;;27.32;36.01;98316.75;5057596;28;20024;-59
2022/07/15 10:41:09;;;;;;;22.00;4.63;;;;;;;29.27;33.71;98314.25;5056671;28;20766;-58
2022/07/15 10:43:44;;;;;;;18.83;3.90;;;;;;;29.37;33.97;98314.88;5058297;28;20063;-59
2022/07/15 10:46:18;;;;;;;16.35;3.55;;;;;;;30.58;31.95;98306.31;5057680;28;20521;-58
2022/07/15 10:48:46;;;;;;;15.23;3.47;;;;;;;29.81;33.24;98309.97;5057359;28;20662;-59
2022/07/15 10:51:32;;;;;;;18.90;4.25;;;;;;;30.92;31.28;98303.97;5056882;28;20139;-59
2022/07/15 10:53:57;;;;;;;18.55;3.85;;;;;;;28.45;33.40;98299.16;5057104;28;20036;-59
2022/07/15 10:56:30;;;;;;;15.55;3.70;;;;;;;27.74;34.34;98305.16;5057859;28;20040;-59
2022/07/15 10:59:16;;;;;;;19.63;4.25;;;;;;;28.73;35.72;98309.53;5057251;28;20990;-59
2022/07/15 11:01:44;;;;;;;21.00;4.07;;;;;;;28.32;34.98;98295.31;5057326;28;20040;-59
2022/07/15 11:04:24;;;;;;;19.40;4.18;;;;;;;27.50;35.46;98299.56;5058136;28;20032;-60
2022/07/15 11:07:02;;;;;;;18.85;4.05;;;;;;;27.28;36.26;98292.13;5056604;28;20368;-58
2022/07/15 11:09:48;;;;;;;20.25;4.28;;;;;;;26.73;37.33;98299.53;5059703;28;20092;-59
2022/07/15 11:12:17;;;;;;;18.25;4.00;;;;;;;27.90;36.99;98299.81;5057165;28;20343;-59
2022/07/15 11:14:48;;;;;;;18.90;4.13;;;;;;;27.40;37.22;98293.50;5057090;28;20024;-58
2022/07/15 11:17:17;;;;;;;21.35;4.30;;;;;;;27.16;37.69;98301.44;5057342;28;20037;-58
2022/07/15 11:19:48;;;;;;;16.83;3.55;;;;;;;26.09;38.05;98295.38;5059209;28;20060;-58
2022/07/15 11:22:15;;;;;;;19.38;3.92;;;;;;;26.35;38.18;98287.41;5058108;28;20039;-58
2022/07/15 11:24:41;;;;;;;17.30;3.70;;;;;;;25.89;37.76;98284.00;5058425;28;20055;-58
2022/07/15 11:27:06;;;;;;;19.30;4.35;;;;;;;26.05;37.44;98286.00;5057723;28;20171;-58
2022/07/15 11:30:03;;;;;;;20.55;3.80;;;;;;;27.52;35.11;98274.47;5058738;28;20033;-57